Time;durP1;ratioP1;P1;durP2;ratioP2;P2;SDS_P1;SDS_P2;PMS_P1;PMS_P2;Temp;Humidity;BMP_temperature;BMP_pressure;BME280_temperature;BME280_humidity;BME280_pressure;Samples;Min_cycle;Max_cycle;Signal;HPM_P1;HPM_P2
2022/09/17 00:00:18;;;;;;;4.70;2.73;;;;;;;;;;5117458;28;20188;-74
2022/09/17 00:02:46;;;;;;;5.77;2.70;;;;;;;-142.65;94.90;50164.81;5117128;28;20185;-74
2022/09/17 00:05:13;;;;;;;3.83;2.33;;;;;;;-142.65;94.96;50168.78;5117128;28;20193;-74
2022/09/17 00:07:39;;;;;;;2.27;1.90;;;;;;;-142.65;94.87;50174.75;5116882;28;20220;-73
2022/09/17 00:10:06;;;;;;;8.73;2.50;;;;;;;-142.65;94.93;50168.78;5116950;28;20189;-73
2022/09/17 00:12:32;;;;;;;2.67;2.47;;;;;;;-142.65;95.16;50174.75;5117002;28;20202;-73
2022/09/17 00:14:58;;;;;;;7.50;2.20;;;;;;;-142.65;95.20;50172.78;5116828;28;20258;-73
2022/09/17 00:17:25;;;;;;;5.73;2.57;;;;;;;-142.65;95.27;50172.78;5098417;28;20201;-73
2022/09/17 00:19:51;;;;;;;2.07;2.00;;;;;;;-142.65;94.98;50170.78;5117298;28;20540;-73
2022/09/17 00:22:17;;;;;;;10.50;3.20;;;;;;;-142.65;94.96;50162.81;5116703;28;20821;-73
2022/09/17 00:24:44;;;;;;;6.73;2.37;;;;;;;;;;5116647;28;20196;-73
2022/09/17 00:27:10;;;;;;;2.60;2.27;;;;;;;;;;5116537;28;20566;-73
2022/09/17 00:29:36;;;;;;;6.53;2.63;;;;;;;-142.65;94.88;50168.78;5116539;28;20573;-73
2022/09/17 00:32:03;;;;;;;7.50;1.93;;;;;;;-142.65;94.88;50172.78;5116545;28;20554;-73
2022/09/17 00:34:29;;;;;;;7.00;2.47;;;;;;;-142.65;94.90;50162.81;5116757;28;20543;-73
2022/09/17 00:36:55;;;;;;;2.17;2.07;;;;;;;-142.65;94.77;50172.78;5116675;28;20192;-73
2022/09/17 00:39:22;;;;;;;5.30;2.17;;;;;;;-142.65;94.62;50178.75;5116378;28;20209;-74
2022/09/17 00:41:48;;;;;;;2.40;2.10;;;;;;;;;;5116328;28;20188;-74
2022/09/17 00:44:33;;;;;;;8.67;2.40;;;;;;;;;;5116293;28;20270;-74
2022/09/17 00:46:59;;;;;;;10.97;2.07;;;;;;;-142.65;94.75;50162.81;5116151;28;20314;-74
2022/09/17 00:49:29;;;;;;;6.00;1.90;;;;;;;-142.65;94.68;50172.78;5116256;28;20209;-73
2022/09/17 00:52:07;;;;;;;5.90;1.90;;;;;;;-142.65;94.43;50180.75;5116468;28;20189;-73
2022/09/17 00:54:35;;;;;;;1.77;1.60;;;;;;;;;;5116716;28;20260;-73
2022/09/17 00:57:01;;;;;;;5.13;2.20;;;;;;;;;;5116044;28;20173;-73
2022/09/17 00:59:28;;;;;;;4.50;2.23;;;;;;;;;;5115929;28;20205;-73
2022/09/17 01:01:54;;;;;;;5.33;2.33;;;;;;;-142.65;94.75;50170.78;5115853;28;20185;-73
2022/09/17 01:04:24;;;;;;;6.50;2.03;;;;;;;;;;5116240;28;20193;-73
2022/09/17 01:06:59;;;;;;;7.33;2.07;;;;;;;;;;5116077;28;20205;-73
2022/09/17 01:09:25;;;;;;;3.90;2.53;;;;;;;;;;5116089;28;20218;-73
2022/09/17 01:12:18;;;;;;;8.70;2.23;;;;;;;-142.65;95.11;50168.78;5115571;28;20223;-73
2022/09/17 01:14:47;;;;;;;2.77;2.37;;;;;;;-142.65;95.17;50180.75;5116027;28;20192;-73
2022/09/17 01:17:32;;;;;;;2.90;2.70;;;;;;;-142.65;95.15;50170.78;5115947;28;20178;-73
2022/09/17 01:20:20;;;;;;;10.07;3.37;;;;;;;-142.65;95.46;50172.78;5116216;28;20185;-73
2022/09/17 01:22:59;;;;;;;4.53;3.43;;;;;;;-142.65;95.52;50164.81;5115622;28;20180;-73
2022/09/17 01:25:51;;;;;;;3.30;3.00;;;;;;;-142.65;95.29;50178.75;5116130;28;20177;-73
2022/09/17 01:28:31;;;;;;;13.33;2.87;;;;;;;-142.65;95.44;50174.75;5115605;28;20214;-73
2022/09/17 01:31:21;;;;;;;4.67;3.33;;;;;;;;;;5115712;28;20173;-73
2022/09/17 01:34:16;;;;;;;5.53;3.23;;;;;;;-142.65;95.25;50174.75;5109907;28;20201;-73
2022/09/17 01:36:51;;;;;;;4.20;2.57;;;;;;;;;;5084300;28;20666;-73
2022/09/17 01:39:42;;;;;;;2.63;2.60;;;;;;;-142.65;95.58;50170.78;5096980;28;20617;-74
2022/09/17 01:42:22;;;;;;;4.47;2.40;;;;;;;-142.65;95.77;50168.78;5115208;28;20185;-73
2022/09/17 01:44:58;;;;;;;3.80;2.73;;;;;;;-142.65;95.73;50168.78;5115486;28;20183;-73
2022/09/17 01:47:50;;;;;;;15.20;2.67;;;;;;;-142.65;95.56;50172.78;5115220;28;20200;-72
2022/09/17 01:50:29;;;;;;;6.20;2.47;;;;;;;-142.65;95.69;50168.78;5115075;28;20181;-73
2022/09/17 01:52:58;;;;;;;4.70;2.63;;;;;;;-142.65;95.78;50178.75;5115286;28;20183;-73
2022/09/17 01:55:31;;;;;;;4.57;2.53;;;;;;;-142.65;95.89;50170.78;5097426;28;20181;-72
2022/09/17 01:58:09;;;;;;;2.13;2.00;;;;;;;-142.65;95.63;50170.78;5115399;28;20552;-72
2022/09/17 02:00:41;;;;;;;16.47;2.73;;;;;;;-142.65;95.52;50168.78;5115025;28;20188;-72
2022/09/17 02:03:19;;;;;;;13.03;2.50;;;;;;;-142.65;95.44;50170.78;5115109;28;20170;-72
2022/09/17 02:05:54;;;;;;;14.67;3.00;;;;;;;-142.65;95.41;50168.78;5115140;28;20191;-72
2022/09/17 02:08:25;;;;;;;11.00;3.53;;;;;;;-142.65;95.60;50170.78;5115007;28;20208;-72
2022/09/17 02:11:09;;;;;;;8.33;2.97;;;;;;;;;;5114797;28;20185;-72
2022/09/17 02:13:42;;;;;;;10.03;2.97;;;;;;;-142.65;95.28;50170.78;5114749;28;20173;-72
2022/09/17 02:16:40;;;;;;;4.30;2.53;;;;;;;-142.65;95.03;50170.78;5114863;28;20176;-73
2022/09/17 02:19:15;;;;;;;2.27;2.00;;;;;;;-142.65;94.78;50168.78;5106097;28;20220;-72
2022/09/17 02:22:15;;;;;;;7.50;2.50;;;;;;;-142.65;94.79;50174.75;5114701;28;20186;-72
2022/09/17 02:24:53;;;;;;;6.27;2.80;;;;;;;-142.65;94.42;50164.81;5114632;28;20615;-72
2022/09/17 02:27:35;;;;;;;9.97;3.20;;;;;;;-142.65;94.48;50176.75;5114463;28;20207;-72
2022/09/17 02:30:02;;;;;;;7.50;2.83;;;;;;;-142.65;94.24;50174.75;5114552;28;20538;-72
2022/09/17 02:32:28;;;;;;;11.93;2.47;;;;;;;-142.65;94.16;50172.78;5114231;28;20199;-72
2022/09/17 02:34:55;;;;;;;6.60;2.57;;;;;;;;;;5114435;28;20196;-72
2022/09/17 02:37:21;;;;;;;4.20;2.70;;;;;;;;;;5114348;28;20176;-72
2022/09/17 02:39:47;;;;;;;5.60;2.90;;;;;;;-142.65;94.28;50164.81;5114071;28;20188;-73
2022/09/17 02:42:51;;;;;;;11.13;2.53;;;;;;;-142.65;94.24;50168.78;5114079;28;20189;-73
2022/09/17 02:45:45;;;;;;;4.27;2.20;;;;;;;-142.65;94.39;50172.78;5114352;28;20168;-72
2022/09/17 02:48:19;;;;;;;6.93;2.60;;;;;;;-142.65;94.51;50174.75;5114225;28;20227;-72
2022/09/17 02:51:15;;;;;;;4.63;2.70;;;;;;;-142.65;94.39;50170.78;5114278;28;20172;-72
2022/09/17 02:53:59;;;;;;;11.63;2.73;;;;;;;-142.65;94.22;50168.78;5082700;28;20197;-72
2022/09/17 02:56:43;;;;;;;5.77;2.70;;;;;;;-142.65;93.98;50170.78;5113950;28;20173;-72
2022/09/17 02:59:20;;;;;;;3.97;2.20;;;;;;;-142.65;94.01;50174.75;5113902;28;20232;-72
2022/09/17 03:02:02;;;;;;;5.13;2.33;;;;;;;-142.65;94.16;50172.78;5114174;28;20187;-72
2022/09/17 03:04:29;;;;;;;5.70;2.83;;;;;;;-142.65;94.10;50168.78;5114399;28;20200;-72
2022/09/17 03:06:58;;;;;;;6.30;2.13;;;;;;;-142.65;94.18;50170.78;5113694;28;20223;-72
2022/09/17 03:09:24;;;;;;;8.13;1.90;;;;;;;;;;5113718;28;20574;-72
2022/09/17 03:11:51;;;;;;;10.93;3.17;;;;;;;-142.65;94.37;50170.78;5113551;28;20200;-72
2022/09/17 03:14:19;;;;;;;5.23;2.00;;;;;;;-142.65;94.23;50174.75;5113702;28;20179;-73
2022/09/17 03:16:46;;;;;;;13.00;3.17;;;;;;;-142.65;94.37;50164.81;5113930;28;20176;-73
2022/09/17 03:19:13;;;;;;;16.23;2.80;;;;;;;-142.65;94.23;50170.78;5113568;28;20200;-73
2022/09/17 03:21:39;;;;;;;6.70;2.50;;;;;;;-142.65;94.14;50170.78;5113887;28;20251;-73
2022/09/17 03:24:05;;;;;;;5.37;2.70;;;;;;;;;;5114548;28;20580;-73
2022/09/17 03:26:32;;;;;;;13.90;2.77;;;;;;;-142.65;93.91;50162.81;5117737;28;20217;-73
2022/09/17 03:28:58;;;;;;;4.93;2.50;;;;;;;-142.65;93.57;50164.81;5117965;28;20196;-73
2022/09/17 03:31:25;;;;;;;8.20;2.30;;;;;;;;;;5117691;28;20196;-73
2022/09/17 03:33:51;;;;;;;5.80;2.73;;;;;;;-142.65;93.65;50170.78;5118222;28;20237;-72
2022/09/17 03:36:17;;;;;;;10.10;2.73;;;;;;;-142.65;93.53;50170.78;5117919;28;20181;-72
2022/09/17 03:38:44;;;;;;;6.43;2.67;;;;;;;;;;5117496;28;20201;-72
2022/09/17 03:41:10;;;;;;;6.73;2.20;;;;;;;-142.65;93.27;50174.75;5117819;28;20189;-72
2022/09/17 03:43:38;;;;;;;6.67;2.93;;;;;;;-142.65;93.16;50168.78;5118295;28;20185;-73
2022/09/17 03:46:05;;;;;;;4.00;2.10;;;;;;;;;;5117469;28;20626;-73
2022/09/17 03:48:35;;;;;;;9.67;2.30;;;;;;;-142.65;92.70;50164.81;5117594;28;20306;-72
2022/09/17 03:51:02;;;;;;;6.97;2.47;;;;;;;-142.65;92.81;50168.78;5117294;28;20670;-73
2022/09/17 03:53:29;;;;;;;5.43;1.80;;;;;;;-142.65;92.49;50172.78;5099086;28;20199;-72
2022/09/17 03:56:00;;;;;;;4.50;2.20;;;;;;;-142.65;92.67;50168.78;5117267;28;20204;-72
2022/09/17 03:58:28;;;;;;;10.20;2.33;;;;;;;-142.65;92.52;50170.78;5117307;28;20209;-72
2022/09/17 04:00:56;;;;;;;8.53;1.70;;;;;;;-142.65;92.52;50170.78;5117743;28;20184;-72
2022/09/17 04:03:24;;;;;;;3.37;1.60;;;;;;;-142.65;92.43;50174.75;5117095;28;20181;-72
2022/09/17 04:05:51;;;;;;;7.57;3.03;;;;;;;-142.65;92.36;50170.78;5117016;28;20553;-72
2022/09/17 04:08:17;;;;;;;7.80;2.10;;;;;;;-142.65;92.11;50170.78;5116821;28;20217;-72
2022/09/17 04:10:44;;;;;;;3.90;2.50;;;;;;;;;;5117022;28;20192;-72
2022/09/17 04:13:11;;;;;;;4.70;1.97;;;;;;;-142.65;92.16;50172.78;5117235;28;20188;-72
2022/09/17 04:15:37;;;;;;;5.10;1.80;;;;;;;-142.65;92.08;50170.78;5116958;28;20205;-72
2022/09/17 04:18:04;;;;;;;3.53;2.33;;;;;;;-142.65;92.08;50178.75;5116942;28;20212;-72
2022/09/17 04:20:31;;;;;;;8.30;1.83;;;;;;;-142.65;92.03;50168.78;5116753;28;20193;-72
2022/09/17 04:22:57;;;;;;;1.33;1.33;;;;;;;-142.65;91.89;50172.78;5116785;28;20193;-72
2022/09/17 04:25:24;;;;;;;6.03;2.00;;;;;;;;;;5116714;28;20177;-72
2022/09/17 04:27:50;;;;;;;5.97;1.80;;;;;;;-142.65;92.05;50168.78;5116530;28;20224;-73
2022/09/17 04:30:17;;;;;;;4.07;1.57;;;;;;;-142.65;92.16;50172.78;5116595;28;20188;-73
2022/09/17 04:32:43;;;;;;;3.90;1.83;;;;;;;-142.65;92.08;50170.78;5116551;28;20200;-73
2022/09/17 04:35:11;;;;;;;8.90;1.50;;;;;;;-142.65;92.12;50172.78;5115949;28;20300;-73
2022/09/17 04:37:37;;;;;;;1.70;1.60;;;;;;;-142.65;91.94;50172.78;5116367;28;20187;-72
2022/09/17 04:40:04;;;;;;;1.40;1.40;;;;;;;-142.65;91.95;50170.78;5116676;28;20188;-72
2022/09/17 04:42:33;;;;;;;5.73;1.90;;;;;;;;;;5116908;28;20613;-73
2022/09/17 04:44:59;;;;;;;2.07;1.27;;;;;;;-142.65;91.81;50170.78;5116280;28;20200;-73
2022/09/17 04:47:26;;;;;;;7.80;2.33;;;;;;;;;;5116117;28;20207;-72
2022/09/17 04:49:52;;;;;;;3.10;1.80;;;;;;;-142.65;91.47;50174.75;5116138;28;20186;-74
2022/09/17 04:52:18;;;;;;;9.47;2.27;;;;;;;-142.65;91.30;50168.78;5116180;28;20177;-74
2022/09/17 04:54:45;;;;;;;6.67;1.80;;;;;;;;;;5116676;28;20516;-73
2022/09/17 04:57:11;;;;;;;8.40;2.27;;;;;;;-142.65;91.49;50174.75;5116064;28;20187;-73
2022/09/17 04:59:37;;;;;;;1.30;1.30;;;;;;;-142.65;91.38;50170.78;5116206;28;20208;-73
2022/09/17 05:02:04;;;;;;;3.77;1.40;;;;;;;-142.65;91.44;50174.75;5115998;28;20681;-73
2022/09/17 05:04:30;;;;;;;8.20;2.10;;;;;;;-142.65;91.37;50174.75;5115904;28;20181;-73
2022/09/17 05:06:56;;;;;;;4.27;1.33;;;;;;;-142.65;91.36;50174.75;5115832;28;20574;-73
2022/09/17 05:09:23;;;;;;;1.53;1.43;;;;;;;-142.65;91.43;50180.75;5115877;28;20204;-73
2022/09/17 05:11:49;;;;;;;4.07;2.17;;;;;;;-142.65;91.77;50176.75;5115694;28;20563;-73
2022/09/17 05:14:15;;;;;;;9.70;1.90;;;;;;;-142.65;91.71;50170.78;5115767;28;20200;-73
2022/09/17 05:16:42;;;;;;;6.53;1.67;;;;;;;-142.65;91.38;50180.75;5115712;28;20192;-74
2022/09/17 05:19:08;;;;;;;3.67;1.90;;;;;;;-142.65;91.57;50170.78;5115661;28;20201;-73
2022/09/17 05:21:35;;;;;;;3.10;1.93;;;;;;;-142.65;91.19;50172.78;5115593;28;20189;-73
2022/09/17 05:24:01;;;;;;;2.60;2.03;;;;;;;-142.65;91.25;50170.78;5115592;28;20551;-73
2022/09/17 05:26:28;;;;;;;2.77;1.70;;;;;;;;;;5115388;28;20206;-73
2022/09/17 05:28:54;;;;;;;2.00;1.53;;;;;;;;;;5115366;28;20220;-74
2022/09/17 05:31:21;;;;;;;3.80;1.93;;;;;;;-142.65;91.42;50172.78;5115354;28;20660;-73
2022/09/17 05:33:47;;;;;;;5.20;1.63;;;;;;;-142.65;91.35;50174.75;5115301;28;20246;-73
2022/09/17 05:36:13;;;;;;;4.70;1.63;;;;;;;-142.65;91.06;50164.81;5115628;28;20174;-73
2022/09/17 05:38:40;;;;;;;1.77;1.70;;;;;;;-142.65;90.92;50170.78;5115145;28;20210;-73
2022/09/17 05:41:06;;;;;;;1.90;1.80;;;;;;;-142.65;90.71;50170.78;5115808;28;20177;-73
2022/09/17 05:43:33;;;;;;;5.80;1.30;;;;;;;-142.65;90.68;50174.75;5115715;28;20181;-73
2022/09/17 05:46:01;;;;;;;3.07;1.50;;;;;;;-142.65;90.54;50176.75;5115133;28;20192;-73
2022/09/17 05:48:28;;;;;;;5.67;2.00;;;;;;;-142.65;90.69;50168.78;5114352;28;20560;-73
2022/09/17 05:50:55;;;;;;;3.87;1.93;;;;;;;-142.65;90.14;50168.78;5115308;28;20543;-73
2022/09/17 05:53:21;;;;;;;1.93;1.40;;;;;;;-142.65;89.48;50182.72;5114965;28;20557;-73
2022/09/17 05:55:48;;;;;;;4.57;1.63;;;;;;;-142.65;90.22;50168.78;5115455;28;20186;-73
2022/09/17 05:58:17;;;;;;;4.83;1.70;;;;;;;-142.65;90.09;50168.78;5114815;28;20690;-73
2022/09/17 06:00:46;;;;;;;11.17;2.10;;;;;;;-142.65;89.89;50172.78;5114709;28;20185;-73
2022/09/17 06:03:15;;;;;;;1.83;1.57;;;;;;;-142.65;89.85;50180.75;5115055;28;20189;-73
2022/09/17 06:05:41;;;;;;;1.90;1.60;;;;;;;-142.65;90.42;50172.78;5114690;28;20193;-73
2022/09/17 06:08:08;;;;;;;4.63;1.67;;;;;;;-142.65;90.01;50172.78;5115128;28;20227;-73
2022/09/17 06:10:36;;;;;;;5.40;1.70;;;;;;;;;;5114904;28;20670;-74
2022/09/17 06:13:02;;;;;;;1.70;1.60;;;;;;;-142.65;90.37;50170.78;5114557;28;20193;-73
2022/09/17 06:15:29;;;;;;;5.47;1.60;;;;;;;-142.65;90.53;50170.78;5114885;28;20180;-73
2022/09/17 06:17:55;;;;;;;6.13;2.13;;;;;;;-142.65;90.44;50172.78;5114482;28;20577;-73
2022/09/17 06:20:22;;;;;;;2.00;1.90;;;;;;;;;;5114538;28;20196;-73
2022/09/17 06:22:48;;;;;;;5.67;1.90;;;;;;;-142.65;91.26;50168.78;5114667;28;20200;-73
2022/09/17 06:25:14;;;;;;;7.90;1.90;;;;;;;-142.65;91.58;50170.78;5114617;28;20193;-73
2022/09/17 06:27:41;;;;;;;4.57;1.90;;;;;;;-142.65;92.04;50178.75;5115787;28;20223;-73
2022/09/17 06:30:07;;;;;;;2.50;2.27;;;;;;;-142.65;91.94;50182.72;5114576;28;20230;-73
2022/09/17 06:32:34;;;;;;;4.10;1.37;;;;;;;-142.65;92.03;50170.78;5114845;28;20195;-73
2022/09/17 06:35:00;;;;;;;6.10;1.80;;;;;;;-142.65;92.31;50168.78;5114170;28;20191;-73
2022/09/17 06:37:27;;;;;;;6.63;2.20;;;;;;;;;;5114459;28;20182;-72
2022/09/17 06:39:54;;;;;;;10.07;2.03;;;;;;;-142.65;92.13;50164.81;5114212;28;20177;-73
2022/09/17 06:42:21;;;;;;;4.00;2.23;;;;;;;;;;5114089;28;20576;-73
2022/09/17 06:44:47;;;;;;;5.70;2.03;;;;;;;-142.65;92.07;50170.78;5114037;28;20203;-73
2022/09/17 06:47:13;;;;;;;4.30;1.80;;;;;;;-142.65;91.89;50178.75;5113943;28;20192;-73
2022/09/17 06:49:40;;;;;;;4.50;1.53;;;;;;;-142.65;90.86;50168.78;5113981;28;20208;-73
2022/09/17 06:52:06;;;;;;;2.70;1.70;;;;;;;-142.65;91.10;50164.81;5113937;28;20180;-73
2022/09/17 06:54:32;;;;;;;3.03;1.80;;;;;;;-142.65;90.74;50164.81;5114247;28;20177;-73
2022/09/17 06:56:59;;;;;;;4.20;1.83;;;;;;;-142.65;91.05;50168.78;5113958;28;20267;-73
2022/09/17 06:59:26;;;;;;;4.67;1.40;;;;;;;-142.65;91.26;50164.81;5114587;28;20208;-72
2022/09/17 07:01:52;;;;;;;1.77;1.67;;;;;;;;;;5114079;28;20173;-73
2022/09/17 07:04:19;;;;;;;8.30;2.13;;;;;;;-142.65;91.79;50170.78;5113781;28;20658;-73
2022/09/17 07:06:45;;;;;;;2.30;2.10;;;;;;;-142.65;91.71;50178.75;5113829;28;20545;-73
2022/09/17 07:09:11;;;;;;;5.60;2.07;;;;;;;-142.65;91.82;50170.78;5113652;28;20223;-72
2022/09/17 07:11:38;;;;;;;3.03;1.77;;;;;;;-142.65;91.87;50178.75;5113636;28;20200;-72
2022/09/17 07:14:05;;;;;;;3.43;2.27;;;;;;;-142.65;92.62;50170.78;5113960;28;20272;-72
2022/09/17 07:16:34;;;;;;;6.43;2.23;;;;;;;;;;5113919;28;20189;-72
2022/09/17 07:19:02;;;;;;;6.57;2.40;;;;;;;;;;5113582;28;20253;-73
2022/09/17 07:21:28;;;;;;;13.93;2.47;;;;;;;-142.65;92.74;50172.78;5113618;28;20651;-73
2022/09/17 07:23:55;;;;;;;3.87;2.60;;;;;;;-142.65;92.38;50174.75;5113598;28;20192;-73
2022/09/17 07:26:21;;;;;;;3.57;2.10;;;;;;;-142.65;91.97;50164.81;5113830;28;20195;-73
2022/09/17 07:28:47;;;;;;;6.33;2.20;;;;;;;;;;5113405;28;20217;-73
2022/09/17 07:31:14;;;;;;;5.90;2.73;;;;;;;-142.65;90.36;50170.78;5113494;28;20189;-73
2022/09/17 07:33:42;;;;;;;6.63;2.10;;;;;;;-142.65;88.71;50168.78;5113476;28;20242;-74
2022/09/17 07:36:12;;;;;;;2.63;2.17;;;;;;;-142.65;88.79;50172.78;5113995;28;20190;-74
2022/09/17 07:38:38;;;;;;;7.13;2.50;;;;;;;-142.65;89.16;50170.78;5113366;28;20289;-73
2022/09/17 07:41:13;;;;;;;1.77;1.50;;;;;;;-142.65;88.20;50176.75;5113681;28;20730;-73
2022/09/17 07:43:40;;;;;;;7.47;2.20;;;;;;;;;;5113394;28;20272;-73
2022/09/17 07:46:08;;;;;;;7.27;1.70;;;;;;;-142.65;87.73;50180.75;5113991;28;20756;-74
2022/09/17 07:48:35;;;;;;;9.57;2.40;;;;;;;-142.65;87.49;50172.78;5113203;28;20305;-74
2022/09/17 07:51:01;;;;;;;2.57;1.40;;;;;;;-142.65;86.02;50168.78;5113372;28;20187;-73
2022/09/17 07:53:28;;;;;;;6.10;2.20;;;;;;;-142.65;84.35;50172.78;5113264;28;20181;-73
2022/09/17 07:55:59;;;;;;;3.83;1.87;;;;;;;-142.65;85.08;50164.81;5113776;28;20271;-74
2022/09/17 07:58:29;;;;;;;5.53;2.00;;;;;;;;;;5113241;28;20205;-75
2022/09/17 08:01:09;;;;;;;1.83;1.53;;;;;;;-142.65;83.87;50176.75;5113509;28;20166;-74
2022/09/17 08:03:37;;;;;;;1.30;1.30;;;;;;;-142.65;83.32;50170.78;5113532;28;20182;-75
2022/09/17 08:06:07;;;;;;;4.63;1.17;;;;;;;-142.65;82.92;50170.78;5113155;28;20208;-73
2022/09/17 08:08:34;;;;;;;3.73;1.47;;;;;;;-142.65;82.56;50174.75;5113152;28;20711;-73
2022/09/17 08:11:02;;;;;;;5.20;1.70;;;;;;;;;;5115314;28;20201;-74
2022/09/17 08:13:28;;;;;;;1.43;1.33;;;;;;;-142.65;83.61;50168.78;5117191;28;20203;-75
2022/09/17 08:16:03;;;;;;;5.70;2.27;;;;;;;-142.65;83.05;50174.75;5117071;28;20197;-73
2022/09/17 08:18:30;;;;;;;6.03;1.10;;;;;;;-142.65;81.71;50168.78;5117110;28;20314;-74
2022/09/17 08:21:01;;;;;;;1.43;1.43;;;;;;;-142.65;81.58;50174.75;5116715;28;20185;-73
2022/09/17 08:23:29;;;;;;;3.10;1.17;;;;;;;-142.65;81.44;50170.78;5116758;28;20245;-74
2022/09/17 08:25:57;;;;;;;1.37;1.27;;;;;;;-142.65;81.39;50170.78;5116898;28;20656;-74
2022/09/17 08:28:25;;;;;;;2.40;1.50;;;;;;;;;;5116371;28;20662;-74
2022/09/17 08:30:52;;;;;;;2.67;1.30;;;;;;;-142.65;80.85;50172.78;5116820;28;20191;-74
2022/09/17 08:33:19;;;;;;;1.27;1.17;;;;;;;-142.65;79.81;50164.81;5116543;28;20658;-73
2022/09/17 08:35:53;;;;;;;2.00;1.23;;;;;;;-142.65;80.82;50174.75;5117019;28;20193;-74
2022/09/17 08:38:20;;;;;;;1.70;1.27;;;;;;;-142.65;80.74;50168.78;5116743;28;20231;-74
2022/09/17 08:41:06;;;;;;;2.97;1.00;;;;;;;-142.65;79.52;50172.78;5116327;28;20187;-75
2022/09/17 08:43:44;;;;;;;3.13;1.70;;;;;;;-142.65;80.35;50172.78;5116919;28;20177;-75
2022/09/17 08:46:11;;;;;;;3.13;1.60;;;;;;;;;;5116671;28;20180;-74
2022/09/17 08:49:14;;;;;;;1.00;1.00;;;;;;;-142.65;78.49;50182.72;5097810;28;20690;-75
2022/09/17 08:52:17;;;;;;;6.60;1.47;;;;;;;-142.65;78.44;50178.75;5100453;28;20211;-73
2022/09/17 08:55:20;;;;;;;1.50;1.50;;;;;;;-142.65;79.67;50164.81;5116174;28;20204;-74
2022/09/17 08:57:52;;;;;;;6.63;1.00;;;;;;;;;;5116171;28;20216;-75
2022/09/17 09:00:19;;;;;;;1.20;1.20;;;;;;;;;;5116075;28;20200;-74
2022/09/17 09:03:02;;;;;;;1.17;1.17;;;;;;;-142.65;77.41;50164.81;5098508;28;20220;-74
2022/09/17 09:05:46;;;;;;;1.10;1.10;;;;;;;-142.65;74.64;50170.78;5115985;28;20173;-74
2022/09/17 09:08:27;;;;;;;4.13;1.10;;;;;;;;;;5116085;28;20236;-74
2022/09/17 09:10:55;;;;;;;1.37;0.93;;;;;;;;;;5116299;28;20248;-74
2022/09/17 09:13:27;;;;;;;3.73;1.57;;;;;;;-142.65;74.30;50160.81;5116066;28;20170;-74
2022/09/17 09:16:05;;;;;;;4.13;1.20;;;;;;;;;;5115762;28;20173;-75
2022/09/17 09:18:39;;;;;;;2.60;1.30;;;;;;;-142.65;74.77;50172.78;5115616;28;20223;-74
2022/09/17 09:21:26;;;;;;;3.50;1.33;;;;;;;;;;5115741;28;20182;-73
2022/09/17 09:23:57;;;;;;;4.17;1.47;;;;;;;;;;5115569;28;20181;-75
2022/09/17 09:26:54;;;;;;;4.10;1.03;;;;;;;-142.65;75.24;50164.81;5115825;28;20183;-75
2022/09/17 09:29:39;;;;;;;1.10;1.07;;;;;;;;;;5115295;28;20228;-73
2022/09/17 09:32:33;;;;;;;1.03;1.00;;;;;;;-142.65;71.39;50168.78;5097867;28;20545;-74
2022/09/17 09:35:01;;;;;;;1.43;1.07;;;;;;;;;;5115693;28;20177;-73
2022/09/17 09:37:32;;;;;;;3.03;1.00;;;;;;;-142.65;71.56;50172.78;5115265;28;20550;-74
2022/09/17 09:40:27;;;;;;;1.23;0.83;;;;;;;-142.65;71.35;50162.81;5115586;28;20256;-73
2022/09/17 09:42:59;;;;;;;1.10;1.00;;;;;;;-142.65;69.16;50164.81;5114039;28;20193;-74
2022/09/17 09:45:34;;;;;;;1.57;1.10;;;;;;;-142.65;69.39;50172.78;5115158;28;20173;-74
2022/09/17 09:48:37;;;;;;;2.77;1.20;;;;;;;-142.65;69.09;50168.78;5115463;28;20211;-74
2022/09/17 09:51:26;;;;;;;1.67;0.90;;;;;;;-142.65;67.20;50168.78;5115035;28;20539;-72
2022/09/17 09:54:06;;;;;;;5.50;0.87;;;;;;;-142.65;70.65;50172.78;5114888;28;20673;-74
2022/09/17 09:57:06;;;;;;;2.97;1.20;;;;;;;-142.65;67.31;50170.78;5115480;28;20180;-74
2022/09/17 09:59:35;;;;;;;3.03;1.63;;;;;;;-142.65;66.37;50168.78;5115137;28;20197;-74
2022/09/17 10:02:02;;;;;;;1.70;1.10;;;;;;;-142.65;66.29;50168.78;5115015;28;20199;-72
2022/09/17 10:04:29;;;;;;;1.07;1.07;;;;;;;;;;5115035;28;20193;-73
2022/09/17 10:07:03;;;;;;;1.20;1.10;;;;;;;;;;5115350;28;20188;-73
2022/09/17 10:09:31;;;;;;;2.83;1.13;;;;;;;-142.65;65.72;50170.78;5114537;28;20208;-74
2022/09/17 10:12:15;;;;;;;3.33;1.47;;;;;;;-142.65;66.42;50164.81;5114693;28;20197;-74
2022/09/17 10:14:44;;;;;;;1.87;1.17;;;;;;;-142.65;66.29;50168.78;5114656;28;20187;-73
2022/09/17 10:17:24;;;;;;;3.40;1.30;;;;;;;-142.65;67.15;50164.81;5114753;28;20185;-73
2022/09/17 10:20:21;;;;;;;7.63;1.00;;;;;;;-142.65;67.92;50170.78;5114739;28;20574;-74
2022/09/17 10:22:48;;;;;;;0.90;0.90;;;;;;;;;;5114487;28;20193;-73
2022/09/17 10:25:33;;;;;;;1.10;1.10;;;;;;;-142.65;65.40;50162.81;5114419;28;20558;-74
2022/09/17 10:28:04;;;;;;;1.70;1.13;;;;;;;;;;5114483;28;20279;-72
2022/09/17 10:30:30;;;;;;;3.30;1.43;;;;;;;;;;5114349;28;20188;-72
2022/09/17 10:33:16;;;;;;;3.90;1.07;;;;;;;;;;5114081;28;20189;-71
2022/09/17 10:36:06;;;;;;;3.10;1.37;;;;;;;-142.65;67.30;50170.78;5114502;28;20195;-72
2022/09/17 10:38:34;;;;;;;0.80;0.80;;;;;;;;;;5114321;28;20611;-72
2022/09/17 10:41:08;;;;;;;0.80;0.80;;;;;;;;;;5114228;28;20665;-72
2022/09/17 10:43:35;;;;;;;1.30;1.10;;;;;;;-142.65;72.97;50164.81;5117253;28;20260;-73
2022/09/17 10:46:02;;;;;;;0.80;0.80;;;;;;;-142.65;73.82;50170.78;5115520;28;20646;-72
2022/09/17 10:48:37;;;;;;;1.33;0.93;;;;;;;-142.65;74.57;50170.78;5113968;28;20682;-71
2022/09/17 10:51:05;;;;;;;0.60;0.60;;;;;;;-142.65;75.25;50170.78;5114283;28;20191;-72
2022/09/17 10:53:53;;;;;;;1.00;1.00;;;;;;;-142.65;76.24;50168.78;5113928;28;20197;-72
2022/09/17 10:56:29;;;;;;;1.00;1.00;;;;;;;-142.65;75.22;50170.78;5114542;28;20177;-72
2022/09/17 10:59:06;;;;;;;1.90;0.90;;;;;;;-142.65;75.30;50170.78;5114418;28;20227;-72
2022/09/17 11:01:56;;;;;;;0.93;0.93;;;;;;;-142.65;75.67;50164.81;5114168;28;20177;-72
2022/09/17 11:04:41;;;;;;;2.60;1.40;;;;;;;-142.65;77.29;50164.81;5114016;28;20226;-72
2022/09/17 11:07:10;;;;;;;2.87;0.90;;;;;;;-142.65;79.12;50168.78;5114103;28;20172;-71
2022/09/17 11:10:04;;;;;;;1.00;1.00;;;;;;;-142.65;82.67;50170.78;5114034;28;20220;-71
2022/09/17 11:12:40;;;;;;;0.83;0.83;;;;;;;;;;5113716;28;20211;-71
2022/09/17 11:15:36;;;;;;;0.70;0.70;;;;;;;-142.65;82.46;50174.75;5113754;28;20231;-72
2022/09/17 11:18:26;;;;;;;0.80;0.80;;;;;;;;;;5113595;28;20215;-71
2022/09/17 11:21:07;;;;;;;0.80;0.80;;;;;;;-142.65;86.19;50170.78;5113678;28;20173;-71
2022/09/17 11:23:52;;;;;;;0.83;0.83;;;;;;;;;;5114209;28;20522;-71
2022/09/17 11:26:36;;;;;;;1.33;1.10;;;;;;;-142.65;87.62;50168.78;5113677;28;20185;-71
2022/09/17 11:29:28;;;;;;;0.80;0.80;;;;;;;-142.65;85.82;50170.78;5113753;28;20231;-71
2022/09/17 11:31:55;;;;;;;0.80;0.80;;;;;;;;;;5109399;28;20560;-71
2022/09/17 11:34:41;;;;;;;0.90;0.90;;;;;;;-142.65;86.47;50168.78;5104737;28;20193;-71
2022/09/17 11:37:27;;;;;;;3.67;1.53;;;;;;;-142.65;85.26;50162.81;5109475;28;20647;-72
2022/09/17 11:40:23;;;;;;;0.97;0.97;;;;;;;-142.65;82.80;50170.78;5113943;28;20679;-71
2022/09/17 11:42:59;;;;;;;6.57;1.27;;;;;;;-142.65;84.19;50170.78;5109568;28;20681;-71
2022/09/17 11:45:28;;;;;;;0.87;0.87;;;;;;;;;;5100855;28;20213;-71
2022/09/17 11:48:15;;;;;;;1.27;0.73;;;;;;;;;;5095990;28;20205;-70
2022/09/17 11:50:48;;;;;;;0.93;0.93;;;;;;;-142.65;83.50;50172.78;5097514;28;20235;-71
2022/09/17 11:53:22;;;;;;;1.00;1.00;;;;;;;-142.65;82.13;50162.81;5097307;28;20646;-72
2022/09/17 11:55:56;;;;;;;0.80;0.80;;;;;;;-142.65;81.25;50172.78;5097368;28;20509;-71
2022/09/17 11:58:37;;;;;;;0.87;0.87;;;;;;;-142.65;78.11;50164.81;5097160;28;20209;-71
2022/09/17 12:01:06;;;;;;;0.83;0.83;;;;;;;;;;5097182;28;20173;-71
2022/09/17 12:03:35;;;;;;;1.33;0.80;;;;;;;;;;5096913;28;20255;-71
2022/09/17 12:06:08;;;;;;;2.03;0.90;;;;;;;-142.65;77.69;50168.78;5097141;28;20177;-71
2022/09/17 12:08:46;;;;;;;0.83;0.83;;;;;;;-142.65;77.37;50170.78;5097353;28;20213;-72
2022/09/17 12:11:26;;;;;;;0.97;0.97;;;;;;;;;;5097208;28;20587;-72
2022/09/17 12:13:59;;;;;;;3.40;0.90;;;;;;;;;;5078809;28;20604;-72
2022/09/17 12:16:42;;;;;;;1.13;1.13;;;;;;;-142.65;80.48;50172.78;5097182;28;20209;-72
2022/09/17 12:19:40;;;;;;;1.50;1.10;;;;;;;-142.65;78.52;50164.81;5096439;28;20683;-71
2022/09/17 12:22:09;;;;;;;4.20;1.10;;;;;;;-142.65;79.55;50160.81;5096477;28;20267;-72